sensor_id;sensor_type;location;lat;lon;timestamp;P1;durP1;ratioP1;P2;durP2;ratioP2
20888;SDS011;10604;51.976;7.594;2024-03-02T19:59:19;4.50;;;3.55;;
20888;SDS011;10604;51.976;7.594;2024-03-02T20:01:44;4.40;;;3.63;;
20888;SDS011;10604;51.976;7.594;2024-03-02T20:04:10;4.00;;;3.23;;
20888;SDS011;10604;51.976;7.594;2024-03-02T20:06:36;4.82;;;3.33;;
20888;SDS011;10604;51.976;7.594;2024-03-02T20:09:01;8.90;;;7.30;;
20888;SDS011;10604;51.976;7.594;2024-03-02T20:11:30;7.50;;;6.00;;
20888;SDS011;10604;51.976;7.594;2024-03-02T20:13:55;6.27;;;5.10;;
20888;SDS011;10604;51.976;7.594;2024-03-02T20:16:21;5.13;;;4.53;;
20888;SDS011;10604;51.976;7.594;2024-03-02T20:18:47;5.90;;;5.00;;
20888;SDS011;10604;51.976;7.594;2024-03-02T20:21:12;5.20;;;4.70;;
20888;SDS011;10604;51.976;7.594;2024-03-02T20:23:37;6.03;;;5.00;;
20888;SDS011;10604;51.976;7.594;2024-03-02T20:26:03;6.47;;;5.43;;
20888;SDS011;10604;51.976;7.594;2024-03-02T20:28:30;8.30;;;6.72;;
20888;SDS011;10604;51.976;7.594;2024-03-02T20:30:55;7.20;;;6.50;;
20888;SDS011;10604;51.976;7.594;2024-03-02T20:33:20;8.00;;;7.13;;
20888;SDS011;10604;51.976;7.594;2024-03-02T20:35:46;6.43;;;5.65;;
20888;SDS011;10604;51.976;7.594;2024-03-02T20:38:11;5.90;;;5.30;;
20888;SDS011;10604;51.976;7.594;2024-03-02T20:40:37;8.07;;;6.13;;
20888;SDS011;10604;51.976;7.594;2024-03-02T20:43:02;8.90;;;6.57;;
20888;SDS011;10604;51.976;7.594;2024-03-02T20:45:28;8.80;;;6.85;;
20888;SDS011;10604;51.976;7.594;2024-03-02T20:47:53;6.17;;;5.57;;
20888;SDS011;10604;51.976;7.594;2024-03-02T20:50:19;8.40;;;7.10;;
20888;SDS011;10604;51.976;7.594;2024-03-02T20:52:44;8.18;;;7.07;;
20888;SDS011;10604;51.976;7.594;2024-03-02T20:55:12;7.18;;;6.25;;
20888;SDS011;10604;51.976;7.594;2024-03-02T20:57:38;7.57;;;6.33;;
20888;SDS011;10604;51.976;7.594;2024-03-02T21:00:04;6.55;;;5.57;;
20888;SDS011;10604;51.976;7.594;2024-03-02T21:02:33;7.65;;;6.00;;
20888;SDS011;10604;51.976;7.594;2024-03-02T21:05:00;6.50;;;5.80;;
20888;SDS011;10604;51.976;7.594;2024-03-02T21:07:26;6.70;;;6.00;;
20888;SDS011;10604;51.976;7.594;2024-03-02T21:09:51;6.20;;;5.28;;
20888;SDS011;10604;51.976;7.594;2024-03-02T21:12:18;7.63;;;6.38;;
20888;SDS011;10604;51.976;7.594;2024-03-02T21:14:44;7.33;;;6.10;;
20888;SDS011;10604;51.976;7.594;2024-03-02T21:17:09;7.40;;;6.50;;
20888;SDS011;10604;51.976;7.594;2024-03-02T21:19:35;7.20;;;6.50;;
20888;SDS011;10604;51.976;7.594;2024-03-02T21:22:00;6.73;;;5.50;;
20888;SDS011;10604;51.976;7.594;2024-03-02T21:24:28;8.48;;;5.32;;
20888;SDS011;10604;51.976;7.594;2024-03-02T21:26:54;6.03;;;5.40;;
20888;SDS011;10604;51.976;7.594;2024-03-02T21:29:19;6.80;;;6.10;;
20888;SDS011;10604;51.976;7.594;2024-03-02T21:31:45;7.83;;;7.03;;
20888;SDS011;10604;51.976;7.594;2024-03-02T21:34:14;6.50;;;5.90;;
20888;SDS011;10604;51.976;7.594;2024-03-02T21:36:40;6.27;;;5.67;;
20888;SDS011;10604;51.976;7.594;2024-03-02T21:39:05;6.30;;;5.70;;
20888;SDS011;10604;51.976;7.594;2024-03-02T21:41:30;7.50;;;6.00;;
20888;SDS011;10604;51.976;7.594;2024-03-02T21:43:56;7.78;;;5.85;;
20888;SDS011;10604;51.976;7.594;2024-03-02T21:46:21;7.40;;;6.70;;
20888;SDS011;10604;51.976;7.594;2024-03-02T21:48:46;8.10;;;6.07;;
20888;SDS011;10604;51.976;7.594;2024-03-02T21:51:16;7.68;;;6.60;;
20888;SDS011;10604;51.976;7.594;2024-03-02T21:53:41;7.40;;;6.67;;
20888;SDS011;10604;51.976;7.594;2024-03-02T21:56:08;8.25;;;6.57;;
20888;SDS011;10604;51.976;7.594;2024-03-02T21:58:34;8.80;;;6.60;;
20888;SDS011;10604;51.976;7.594;2024-03-02T22:01:00;8.03;;;6.00;;
20888;SDS011;10604;51.976;7.594;2024-03-02T22:03:25;7.13;;;6.38;;
20888;SDS011;10604;51.976;7.594;2024-03-02T22:05:50;7.80;;;5.67;;
20888;SDS011;10604;51.976;7.594;2024-03-02T22:08:16;6.90;;;5.90;;
20888;SDS011;10604;51.976;7.594;2024-03-02T22:10:41;8.00;;;6.10;;
20888;SDS011;10604;51.976;7.594;2024-03-02T22:13:06;7.00;;;5.72;;
20888;SDS011;10604;51.976;7.594;2024-03-02T22:15:32;7.67;;;6.20;;
20888;SDS011;10604;51.976;7.594;2024-03-02T22:17:58;7.20;;;6.33;;
20888;SDS011;10604;51.976;7.594;2024-03-02T22:20:25;7.30;;;6.23;;
20888;SDS011;10604;51.976;7.594;2024-03-02T22:22:51;7.68;;;6.05;;
20888;SDS011;10604;51.976;7.594;2024-03-02T22:25:16;7.63;;;6.20;;
20888;SDS011;10604;51.976;7.594;2024-03-02T22:27:41;7.33;;;5.97;;
20888;SDS011;10604;51.976;7.594;2024-03-02T22:30:07;7.20;;;6.50;;
20888;SDS011;10604;51.976;7.594;2024-03-02T22:32:33;7.30;;;6.27;;
20888;SDS011;10604;51.976;7.594;2024-03-02T22:34:58;7.78;;;6.45;;
20888;SDS011;10604;51.976;7.594;2024-03-02T22:37:23;7.37;;;5.93;;
20888;SDS011;10604;51.976;7.594;2024-03-02T22:39:49;7.23;;;6.27;;
20888;SDS011;10604;51.976;7.594;2024-03-02T22:42:14;8.60;;;6.43;;
20888;SDS011;10604;51.976;7.594;2024-03-02T22:44:40;7.60;;;6.80;;
20888;SDS011;10604;51.976;7.594;2024-03-02T22:47:05;8.57;;;6.50;;
20888;SDS011;10604;51.976;7.594;2024-03-02T22:49:30;7.70;;;6.70;;
20888;SDS011;10604;51.976;7.594;2024-03-02T22:51:56;7.30;;;6.60;;
20888;SDS011;10604;51.976;7.594;2024-03-02T22:54:21;7.82;;;6.43;;
20888;SDS011;10604;51.976;7.594;2024-03-02T22:56:47;7.40;;;6.70;;
20888;SDS011;10604;51.976;7.594;2024-03-02T22:59:13;8.40;;;6.85;;
20888;SDS011;10604;51.976;7.594;2024-03-02T23:01:38;7.87;;;6.67;;
20888;SDS011;10604;51.976;7.594;2024-03-02T23:04:05;7.60;;;6.72;;
20888;SDS011;10604;51.976;7.594;2024-03-02T23:06:30;8.60;;;7.70;;
20888;SDS011;10604;51.976;7.594;2024-03-02T23:08:55;8.50;;;7.57;;
20888;SDS011;10604;51.976;7.594;2024-03-02T23:11:21;7.50;;;6.70;;
20888;SDS011;10604;51.976;7.594;2024-03-02T23:13:46;8.03;;;7.00;;
20888;SDS011;10604;51.976;7.594;2024-03-02T23:16:11;7.28;;;6.55;;
20888;SDS011;10604;51.976;7.594;2024-03-02T23:18:37;8.10;;;6.80;;
20888;SDS011;10604;51.976;7.594;2024-03-02T23:21:02;7.87;;;6.90;;
20888;SDS011;10604;51.976;7.594;2024-03-02T23:23:28;9.43;;;6.97;;
20888;SDS011;10604;51.976;7.594;2024-03-02T23:25:53;7.50;;;6.80;;
20888;SDS011;10604;51.976;7.594;2024-03-02T23:28:18;7.83;;;7.00;;
20888;SDS011;10604;51.976;7.594;2024-03-02T23:30:43;9.17;;;7.00;;
20888;SDS011;10604;51.976;7.594;2024-03-02T23:33:09;7.50;;;6.73;;
20888;SDS011;10604;51.976;7.594;2024-03-02T23:35:35;7.90;;;7.10;;
20888;SDS011;10604;51.976;7.594;2024-03-02T23:38:00;9.07;;;7.00;;
20888;SDS011;10604;51.976;7.594;2024-03-02T23:40:26;7.77;;;6.97;;
20888;SDS011;10604;51.976;7.594;2024-03-02T23:42:53;8.30;;;7.50;;
20888;SDS011;10604;51.976;7.594;2024-03-02T23:45:19;8.70;;;7.30;;
20888;SDS011;10604;51.976;7.594;2024-03-02T23:47:44;8.37;;;7.00;;
20888;SDS011;10604;51.976;7.594;2024-03-02T23:50:09;8.95;;;7.25;;
20888;SDS011;10604;51.976;7.594;2024-03-02T23:52:35;8.63;;;6.73;;
20888;SDS011;10604;51.976;7.594;2024-03-02T23:55:00;8.17;;;7.30;;
20888;SDS011;10604;51.976;7.594;2024-03-02T23:57:26;8.40;;;7.43;;
20888;SDS011;10604;51.976;7.594;2024-03-02T23:59:51;8.70;;;7.17;;
